Airport View

Enter AWOS ICAO identifier for current METAR.

ex. KFNL

KTOP 031653Z 07007KT 10SM FEW080 31/23 A3003 RMK AO2 SLP158 T03060228

3 Jul 2020 17:28

Frequency: 121.275

Phone: 785-234-1591

Other Area AWOS: KFOE - KLWC - KOWI - KIXD

TAF KTOP 031120Z 0312/0412 27006KT P6SM BKN110 FM031500 07005KT P6SM SCT200